Time;durP1;ratioP1;P1;durP2;ratioP2;P2;SDS_P1;SDS_P2;PMS_P1;PMS_P2;Temp;Humidity;BMP_temperature;BMP_pressure;BME280_temperature;BME280_humidity;BME280_pressure;Samples;Min_cycle;Max_cycle;Signal;HPM_P1;HPM_P2
2024/02/11 00:00:35;;;;;;;14.90;8.70;;;;;9.90;98050.00;;;;10245347;28;20585;-77
2024/02/11 00:05:37;;;;;;;12.27;7.80;;;;;9.90;98052.00;;;;10224722;28;20228;-75
2024/02/11 00:10:39;;;;;;;10.87;8.03;;;;;9.90;98058.00;;;;10279150;28;20338;-77
2024/02/11 00:15:42;;;;;;;9.43;8.07;;;;;9.90;98047.00;;;;10235366;28;20822;-75
2024/02/11 00:20:44;;;;;;;10.77;9.03;;;;;9.90;98045.00;;;;10254276;28;20225;-77
2024/02/11 00:25:45;;;;;;;13.77;9.10;;;;;9.90;98047.00;;;;10284914;28;20236;-79
2024/02/11 00:30:50;;;;;;;12.77;8.93;;;;;9.90;98046.00;;;;10255252;28;20229;-74
2024/02/11 00:35:52;;;;;;;15.07;10.57;;;;;9.90;98038.00;;;;10236840;28;20229;-78
2024/02/11 00:40:54;;;;;;;12.67;9.40;;;;;9.90;98043.00;;;;10267808;28;20760;-80
2024/02/11 00:45:56;;;;;;;11.77;9.43;;;;;9.90;98038.00;;;;10247019;28;20238;-78
2024/02/11 00:50:58;;;;;;;11.80;9.97;;;;;9.80;98046.00;;;;10228377;28;20264;-79
2024/02/11 00:56:02;;;;;;;14.17;11.40;;;;;9.90;98033.00;;;;10250842;28;20233;-78
2024/02/11 01:01:04;;;;;;;13.53;11.77;;;;;9.90;98028.00;;;;10263392;28;20945;-77
2024/02/11 01:06:08;;;;;;;14.50;11.50;;;;;9.90;98038.00;;;;10255560;28;20243;-77
2024/02/11 01:11:09;;;;;;;15.17;10.83;;;;;9.90;98045.00;;;;10249217;28;20219;-78
2024/02/11 01:16:12;;;;;;;14.17;10.57;;;;;9.90;98035.00;;;;10237969;28;20259;-78
2024/02/11 01:21:14;;;;;;;13.00;10.33;;;;;9.90;98040.00;;;;10248266;28;20233;-77
2024/02/11 01:26:16;;;;;;;14.20;11.57;;;;;9.80;98048.00;;;;10263722;28;20409;-79
2024/02/11 01:31:17;;;;;;;13.63;10.53;;;;;9.80;98039.00;;;;10267585;28;21080;-77
2024/02/11 01:36:19;;;;;;;13.57;11.17;;;;;9.90;98045.00;;;;10243278;28;20904;-78
2024/02/11 01:41:22;;;;;;;15.63;11.40;;;;;9.90;98043.00;;;;10243438;28;20295;-79
2024/02/11 01:46:24;;;;;;;16.23;13.37;;;;;9.90;98049.00;;;;10256021;28;20247;-87
2024/02/11 01:51:26;;;;;;;28.80;17.53;;;;;9.80;98061.00;;;;10232263;28;20225;-84
2024/02/11 01:56:29;;;;;;;24.80;15.20;;;;;9.60;98062.00;;;;10265805;28;20232;-83
2024/02/11 02:01:32;;;;;;;17.97;12.63;;;;;9.40;98081.00;;;;10262257;28;20221;-86
2024/02/11 02:06:34;;;;;;;16.00;12.00;;;;;9.20;98079.00;;;;10417259;23;20672;-90
2024/02/11 02:11:38;;;;;;;16.60;11.90;;;;;9.10;98084.00;;;;10959409;23;20222;-86
2024/02/11 02:16:43;;;;;;;13.27;9.70;;;;;9.00;98085.00;;;;10478530;28;20202;-84
2024/02/11 02:21:51;;;;;;;14.13;9.47;;;;;8.80;98091.00;;;;10542827;23;20225;-86
2024/02/11 02:26:53;;;;;;;13.00;9.13;;;;;8.70;98095.00;;;;10418831;28;20215;-87
2024/02/11 02:56:19;;;;;;;10.20;7.40;;;;;8.50;98130.00;;;;11163444;23;20284;-86
2024/02/11 03:01:29;;;;;;;13.47;8.30;;;;;8.40;98123.00;;;;10000675;29;20234;-86
2024/02/11 03:06:33;;;;;;;15.73;8.97;;;;;8.40;98134.00;;;;9953916;29;20237;-86
2024/02/11 03:11:35;;;;;;;18.17;10.00;;;;;8.40;98140.00;;;;9969210;29;20838;-87
2024/02/11 03:16:37;;;;;;;14.03;9.20;;;;;8.40;98152.00;;;;9988995;29;20286;-86
2024/02/11 03:21:40;;;;;;;13.50;8.73;;;;;8.30;98153.00;;;;9998336;29;20378;-85
2024/02/11 03:26:42;;;;;;;17.07;7.77;;;;;8.30;98156.00;;;;9974956;29;20230;-84
2024/02/11 03:31:45;;;;;;;10.47;5.43;;;;;8.30;98147.00;;;;9977099;29;20231;-87
2024/02/11 03:36:47;;;;;;;10.90;4.70;;;;;8.20;98160.00;;;;9991935;29;20225;-86
2024/02/11 03:41:49;;;;;;;22.80;5.07;;;;;8.10;98168.00;;;;10008623;29;20925;-85
2024/02/11 03:46:51;;;;;;;14.23;4.13;;;;;8.10;98168.00;;;;10025134;29;20224;-86
2024/02/11 03:51:55;;;;;;;13.93;4.27;;;;;8.00;98172.00;;;;10003454;29;20233;-86
2024/02/11 03:56:57;;;;;;;17.47;4.00;;;;;8.00;98171.00;;;;10008779;29;20225;-85
2024/02/11 04:02:03;;;;;;;15.70;4.07;;;;;7.90;98179.00;;;;10023142;29;20228;-85
2024/02/11 04:07:10;;;;;;;16.87;4.53;;;;;7.90;98184.00;;;;10011218;29;20727;-77
2024/02/11 04:12:12;;;;;;;17.13;3.93;;;;;7.90;98199.00;;;;9994275;29;20752;-77
2024/02/11 04:17:14;;;;;;;11.93;3.60;;;;;7.90;98201.00;;;;10018116;29;20424;-79
2024/02/11 04:22:16;;;;;;;17.07;4.00;;;;;7.90;98202.00;;;;9998917;29;20289;-76
2024/02/11 04:27:19;;;;;;;17.37;4.33;;;;;7.90;98194.00;;;;9991430;29;20252;-75
2024/02/11 04:32:24;;;;;;;21.93;4.60;;;;;7.80;98198.00;;;;10029527;29;21039;-75
2024/02/11 04:37:28;;;;;;;18.93;4.87;;;;;7.80;98195.00;;;;9997120;29;20229;-76
2024/02/11 04:42:34;;;;;;;20.57;4.80;;;;;7.80;98184.00;;;;10007453;29;20987;-79
2024/02/11 04:47:36;;;;;;;19.70;4.30;;;;;7.80;98198.00;;;;9998766;29;21025;-77
2024/02/11 04:52:39;;;;;;;19.50;5.37;;;;;7.80;98213.00;;;;10005770;29;20319;-78
2024/02/11 04:57:41;;;;;;;17.23;6.17;;;;;7.80;98215.00;;;;9979652;29;20822;-75
2024/02/11 05:02:44;;;;;;;17.87;5.03;;;;;7.80;98220.00;;;;9974183;29;20233;-76
2024/02/11 05:07:47;;;;;;;18.23;6.10;;;;;7.80;98228.00;;;;9956090;29;20233;-79
2024/02/11 05:12:49;;;;;;;20.90;6.13;;;;;7.80;98237.00;;;;9970359;29;20906;-75
2024/02/11 05:17:54;;;;;;;24.63;7.57;;;;;7.80;98226.00;;;;9967213;29;20224;-76
2024/02/11 05:22:59;;;;;;;23.53;8.33;;;;;7.70;98226.00;;;;9978019;29;20875;-76
2024/02/11 05:28:03;;;;;;;26.53;10.30;;;;;7.70;98235.00;;;;9968062;29;20230;-77
2024/02/11 05:33:08;;;;;;;23.93;10.77;;;;;7.70;98238.00;;;;9962124;29;20274;-76
2024/02/11 05:38:11;;;;;;;30.20;11.80;;;;;7.70;98241.00;;;;9994652;29;21101;-76
2024/02/11 05:43:15;;;;;;;27.30;12.50;;;;;7.70;98232.00;;;;9975044;29;20240;-75
2024/02/11 05:48:17;;;;;;;25.13;11.50;;;;;7.80;98246.00;;;;9975445;29;20228;-77
2024/02/11 05:53:20;;;;;;;41.70;15.17;;;;;7.80;98256.00;;;;9972011;29;20225;-76
2024/02/11 05:58:23;;;;;;;33.03;13.70;;;;;7.80;98257.00;;;;9974256;29;20651;-77
2024/02/11 06:03:24;;;;;;;26.73;12.07;;;;;7.90;98263.00;;;;9978402;29;20231;-77
2024/02/11 06:08:27;;;;;;;31.37;13.87;;;;;7.90;98260.00;;;;9990214;29;20316;-78
2024/02/11 06:13:30;;;;;;;32.47;14.40;;;;;7.90;98270.00;;;;9982819;29;20234;-77
2024/02/11 06:18:32;;;;;;;31.90;13.53;;;;;8.00;98289.00;;;;9987810;29;20929;-77
2024/02/11 06:23:34;;;;;;;33.50;15.57;;;;;8.00;98290.00;;;;9974511;29;20372;-77
2024/02/11 06:28:36;;;;;;;36.90;14.17;;;;;8.00;98286.00;;;;9981164;29;20239;-75
2024/02/11 06:33:40;;;;;;;35.23;13.83;;;;;8.00;98289.00;;;;9968433;29;20233;-75
2024/02/11 06:38:44;;;;;;;29.67;15.17;;;;;8.00;98297.00;;;;9953756;29;20241;-76
2024/02/11 06:43:45;;;;;;;38.17;14.60;;;;;8.00;98316.00;;;;9984566;29;20762;-75
2024/02/11 06:48:47;;;;;;;34.23;15.00;;;;;8.00;98325.00;;;;10000169;29;20256;-77
2024/02/11 06:53:49;;;;;;;34.57;13.47;;;;;8.00;98323.00;;;;9990346;29;20235;-75
2024/02/11 06:58:51;;;;;;;28.50;13.13;;;;;8.10;98335.00;;;;9967917;29;20266;-75
2024/02/11 07:03:53;;;;;;;36.57;13.93;;;;;8.10;98329.00;;;;9983990;29;20816;-76
2024/02/11 07:08:55;;;;;;;36.07;12.33;;;;;8.10;98341.00;;;;9983686;29;20225;-75
2024/02/11 07:13:57;;;;;;;35.60;13.87;;;;;8.20;98344.00;;;;9986556;29;20872;-77
2024/02/11 07:18:59;;;;;;;28.57;12.27;;;;;8.20;98344.00;;;;9976606;29;20261;-77
2024/02/11 07:24:02;;;;;;;32.30;12.97;;;;;8.20;98353.00;;;;9999993;29;20229;-75
2024/02/11 07:29:04;;;;;;;34.87;12.27;;;;;8.20;98350.00;;;;9972134;29;20308;-75
2024/02/11 07:34:06;;;;;;;39.10;14.27;;;;;8.30;98352.00;;;;9989636;29;20224;-76
2024/02/11 07:39:08;;;;;;;34.63;13.43;;;;;8.40;98367.00;;;;9977382;29;20229;-76
2024/02/11 07:44:12;;;;;;;35.00;13.70;;;;;8.40;98359.00;;;;9964804;29;20264;-76
2024/02/11 07:49:15;;;;;;;25.23;10.70;;;;;8.40;98377.00;;;;9954211;29;20244;-76
2024/02/11 07:54:20;;;;;;;26.07;11.80;;;;;8.30;98386.00;;;;9957458;29;20280;-76
2024/02/11 07:59:22;;;;;;;27.63;12.50;;;;;8.40;98393.00;;;;9973562;29;21045;-76
2024/02/11 08:04:24;;;;;;;28.47;12.90;;;;;8.40;98395.00;;;;9987017;29;20229;-76
2024/02/11 08:09:25;;;;;;;30.13;12.77;;;;;8.50;98392.00;;;;9971124;29;20237;-75
2024/02/11 08:14:27;;;;;;;33.93;14.30;;;;;8.60;98405.00;;;;9984503;29;20312;-75
2024/02/11 08:19:29;;;;;;;31.30;12.37;;;;;8.60;98407.00;;;;9977331;29;20229;-77
2024/02/11 08:24:34;;;;;;;25.03;10.87;;;;;8.70;98407.00;;;;9990616;29;20229;-76
2024/02/11 08:29:35;;;;;;;24.63;10.00;;;;;8.80;98417.00;;;;9970901;29;20236;-76
2024/02/11 08:34:37;;;;;;;28.60;9.80;;;;;8.90;98417.00;;;;9983645;29;20237;-73
2024/02/11 08:39:40;;;;;;;30.27;11.03;;;;;9.00;98435.00;;;;9977714;29;20650;-76
2024/02/11 08:44:41;;;;;;;57.37;33.27;;;;;9.20;98439.00;;;;9958493;29;20296;-81
2024/02/11 08:49:46;;;;;;;24.40;9.50;;;;;9.40;98435.00;;;;9983583;29;20229;-79
2024/02/11 08:54:49;;;;;;;29.87;10.47;;;;;9.50;98445.00;;;;9981317;29;20318;-77
2024/02/11 08:59:52;;;;;;;15.93;7.80;;;;;9.40;98443.00;;;;9974776;29;20263;-77
2024/02/11 09:04:55;;;;;;;22.40;8.57;;;;;9.40;98446.00;;;;9994279;29;20316;-76
2024/02/11 09:09:57;;;;;;;21.97;9.33;;;;;9.60;98444.00;;;;9992660;29;20288;-76
2024/02/11 09:14:59;;;;;;;18.80;7.33;;;;;9.80;98450.00;;;;9974329;29;20222;-77
2024/02/11 09:20:01;;;;;;;24.10;7.73;;;;;9.90;98451.00;;;;9968763;29;20221;-76
2024/02/11 09:25:06;;;;;;;18.97;7.47;;;;;10.10;98465.00;;;;9972169;29;20606;-78
2024/02/11 09:30:11;;;;;;;18.63;8.40;;;;;10.30;98473.00;;;;9976931;29;20297;-76
2024/02/11 09:35:13;;;;;;;19.23;6.47;;;;;10.20;98467.00;;;;9980089;29;20226;-75
2024/02/11 09:40:17;;;;;;;20.63;7.63;;;;;10.20;98477.00;;;;9973716;29;20225;-76
2024/02/11 09:45:23;;;;;;;25.17;6.73;;;;;10.20;98477.00;;;;9961513;29;20242;-75
2024/02/11 09:50:25;;;;;;;19.77;6.73;;;;;10.40;98485.00;;;;9976802;29;20225;-75
2024/02/11 09:55:30;;;;;;;17.57;5.50;;;;;10.20;98480.00;;;;9971602;29;20232;-74
2024/02/11 10:00:32;;;;;;;20.30;6.10;;;;;10.10;98480.00;;;;9961804;29;20233;-74
2024/02/11 10:05:39;;;;;;;13.33;5.43;;;;;10.10;98489.00;;;;9956088;29;20870;-75
2024/02/11 10:10:45;;;;;;;13.23;4.77;;;;;10.20;98501.00;;;;9985079;29;20226;-74
2024/02/11 10:15:48;;;;;;;14.20;4.47;;;;;10.70;98503.00;;;;9945508;29;20234;-75
2024/02/11 10:20:52;;;;;;;12.23;4.53;;;;;11.00;98508.00;;;;9978884;29;20236;-76
2024/02/11 10:25:53;;;;;;;11.63;4.47;;;;;11.30;98511.00;;;;9971937;29;20873;-75
2024/02/11 10:30:56;;;;;;;12.93;4.50;;;;;11.40;98514.00;;;;9987013;29;20221;-75
2024/02/11 10:36:04;;;;;;;15.73;4.50;;;;;11.50;98528.00;;;;9960440;29;20234;-77
2024/02/11 10:41:06;;;;;;;14.03;4.30;;;;;11.60;98527.00;;;;9996534;29;20229;-76
2024/02/11 10:46:08;;;;;;;12.53;3.97;;;;;11.80;98523.00;;;;9962110;29;20225;-75
2024/02/11 10:51:14;;;;;;;10.60;4.13;;;;;11.40;98528.00;;;;9989467;29;20225;-75
2024/02/11 10:56:18;;;;;;;9.50;3.80;;;;;11.20;98522.00;;;;9964010;29;20297;-76
2024/02/11 11:01:21;;;;;;;11.97;3.57;;;;;11.10;98519.00;;;;10002883;29;20842;-75
2024/02/11 11:50:28;;;;;;;5.97;2.60;;;;;10.90;98584.00;;;;10541509;27;20664;-80
2024/02/11 11:55:30;;;;;;;10.67;3.30;;;;;11.40;98604.00;;;;10507211;27;20216;-79
2024/02/11 12:00:31;;;;;;;7.30;3.33;;;;;11.70;98603.00;;;;10514870;27;20386;-80
2024/02/11 12:05:32;;;;;;;8.53;3.20;;;;;11.90;98596.00;;;;10515350;27;20239;-80
2024/02/11 12:10:34;;;;;;;8.40;3.27;;;;;12.20;98596.00;;;;10504425;27;20212;-79
2024/02/11 12:15:35;;;;;;;7.43;3.20;;;;;12.20;98584.00;;;;10515829;27;20240;-80
2024/02/11 12:20:39;;;;;;;9.17;3.10;;;;;12.10;98575.00;;;;10485665;27;20291;-80
2024/02/11 12:25:41;;;;;;;7.63;2.67;;;;;12.10;98571.00;;;;10511998;28;20228;-78
2024/02/11 12:30:46;;;;;;;6.77;3.10;;;;;11.90;98573.00;;;;10511591;27;20277;-78
2024/02/11 12:35:49;;;;;;;11.23;3.67;;;;;11.80;98571.00;;;;10536646;27;20214;-82
2024/02/11 12:40:50;;;;;;;11.30;3.70;;;;;12.10;98566.00;;;;10515450;27;20320;-82
2024/02/11 12:45:52;;;;;;;11.83;3.30;;;;;12.80;98560.00;;;;10486632;28;20228;-78
2024/02/11 12:50:54;;;;;;;9.25;2.45;;;;;13.20;98571.00;;;;10493067;27;20304;-78
2024/02/11 12:55:56;;;;;;;8.05;3.15;;;;;13.40;98567.00;;;;10488708;28;20917;-79
2024/02/11 13:00:58;;;;;;;8.95;2.75;;;;;13.60;98559.00;;;;10467678;28;20221;-79
2024/02/11 13:05:59;;;;;;;5.90;2.28;;;;;13.30;98565.00;;;;10441589;28;20225;-80
2024/02/11 13:11:02;;;;;;;5.20;2.50;;;;;13.10;98565.00;;;;10438938;28;20217;-81
2024/02/11 13:16:05;;;;;;;8.13;2.45;;;;;13.00;98565.00;;;;10441659;28;20224;-79
2024/02/11 13:21:07;;;;;;;5.55;2.20;;;;;12.80;98569.00;;;;10443882;28;20332;-80
2024/02/11 13:26:08;;;;;;;5.57;2.33;;;;;12.60;98569.00;;;;10450065;28;20228;-79
2024/02/11 13:31:09;;;;;;;6.40;1.80;;;;;12.30;98568.00;;;;10435506;28;20705;-79
2024/02/11 13:36:27;;;;;;;5.53;1.90;;;;;12.00;98559.00;;;;10441143;28;20248;-81
2024/02/11 13:41:28;;;;;;;5.35;1.60;;;;;12.40;98572.00;;;;10449071;28;20222;-81
2024/02/11 13:46:29;;;;;;;5.50;2.05;;;;;12.50;98564.00;;;;10463867;28;20225;-82
2024/02/11 13:51:30;;;;;;;5.87;1.30;;;;;12.40;98572.00;;;;10465616;28;20240;-81
2024/02/11 13:56:32;;;;;;;5.20;1.20;;;;;12.10;98569.00;;;;10442079;28;20740;-81
2024/02/11 14:01:33;;;;;;;2.93;1.20;;;;;12.10;98573.00;;;;10456521;28;20896;-81
2024/02/11 14:06:34;;;;;;;3.07;1.77;;;;;12.10;98584.00;;;;10449570;28;20220;-81
2024/02/11 14:11:35;;;;;;;1.80;0.93;;;;;12.10;98587.00;;;;10442805;28;20779;-80
2024/02/11 14:16:37;;;;;;;2.20;0.97;;;;;12.00;98581.00;;;;10437422;28;20224;-79
2024/02/11 14:21:49;;;;;;;2.80;1.43;;;;;12.10;98596.00;;;;10408254;28;20304;-79
2024/02/11 14:26:51;;;;;;;6.03;1.73;;;;;12.10;98595.00;;;;10426309;28;20320;-81
2024/02/11 14:31:53;;;;;;;3.70;1.70;;;;;11.90;98601.00;;;;10458372;28;20935;-79
2024/02/11 14:36:55;;;;;;;4.37;1.90;;;;;11.70;98609.00;;;;10435457;28;20221;-79
2024/02/11 14:41:56;;;;;;;4.87;2.37;;;;;11.40;98606.00;;;;10454708;28;20225;-79
2024/02/11 14:46:57;;;;;;;4.47;2.20;;;;;11.30;98606.00;;;;10458042;28;20916;-82
2024/02/11 14:51:59;;;;;;;3.80;1.73;;;;;11.20;98608.00;;;;10409857;28;20214;-84
2024/02/11 14:57:01;;;;;;;4.80;1.90;;;;;11.20;98622.00;;;;10445000;28;20213;-84
2024/02/11 15:02:04;;;;;;;3.53;2.37;;;;;11.40;98609.00;;;;10469888;28;20221;-86
2024/02/11 15:07:05;;;;;;;8.63;2.60;;;;;11.40;98619.00;;;;10491212;28;20285;-83
2024/02/11 15:12:07;;;;;;;4.93;2.30;;;;;12.10;98612.00;;;;10458216;28;20255;-86
2024/02/11 15:17:08;;;;;;;7.90;2.33;;;;;12.50;98626.00;;;;10453678;28;20278;-86
2024/02/11 15:22:10;;;;;;;5.67;2.10;;;;;12.30;98630.00;;;;10431539;28;20212;-85
2024/02/11 15:27:11;;;;;;;3.17;1.50;;;;;11.90;98635.00;;;;10437151;28;20266;-85
2024/02/11 15:32:14;;;;;;;6.00;2.20;;;;;11.40;98642.00;;;;10417629;28;20217;-82
2024/02/11 15:37:16;;;;;;;2.80;1.83;;;;;11.30;98640.00;;;;10439643;28;20215;-84
2024/02/11 15:42:19;;;;;;;5.87;1.70;;;;;11.10;98661.00;;;;10443287;28;20209;-84
2024/02/11 15:47:20;;;;;;;4.73;1.70;;;;;11.00;98656.00;;;;10429621;28;20228;-85
2024/02/11 15:52:22;;;;;;;1.83;1.40;;;;;11.00;98656.00;;;;10441790;28;20217;-84
2024/02/11 15:57:26;;;;;;;3.47;1.70;;;;;10.90;98660.00;;;;10447881;28;20232;-75
2024/02/11 16:02:27;;;;;;;5.23;1.80;;;;;10.80;98666.00;;;;10414630;28;20304;-80
2024/02/11 16:07:29;;;;;;;5.87;2.00;;;;;10.60;98678.00;;;;10434782;28;20263;-77
2024/02/11 16:12:30;;;;;;;4.30;1.50;;;;;10.50;98676.00;;;;10438537;28;20221;-76
2024/02/11 16:17:36;;;;;;;3.50;1.50;;;;;10.40;98688.00;;;;10428683;28;20217;-79
2024/02/11 16:22:39;;;;;;;2.30;1.37;;;;;10.20;98680.00;;;;10444977;28;20229;-77
2024/02/11 16:27:41;;;;;;;2.53;1.40;;;;;10.10;98693.00;;;;10415683;28;20245;-76
2024/02/11 16:32:42;;;;;;;3.30;1.37;;;;;10.00;98696.00;;;;10440278;28;20256;-75
2024/02/11 16:37:43;;;;;;;3.43;1.77;;;;;9.90;98697.00;;;;10451959;28;20837;-75
2024/02/11 16:42:45;;;;;;;4.17;1.80;;;;;9.80;98697.00;;;;10427845;28;20221;-78
2024/02/11 16:47:47;;;;;;;4.73;1.57;;;;;9.80;98698.00;;;;10445393;28;20320;-76
2024/02/11 16:52:48;;;;;;;4.70;1.90;;;;;9.70;98711.00;;;;10444491;28;20304;-76
2024/02/11 16:57:50;;;;;;;4.53;1.80;;;;;9.70;98719.00;;;;10459999;28;20225;-76
2024/02/11 17:02:51;;;;;;;4.07;1.80;;;;;9.70;98730.00;;;;10436412;28;20225;-76
2024/02/11 17:07:53;;;;;;;4.60;2.40;;;;;9.70;98742.00;;;;10482215;28;20641;-76
2024/02/11 17:12:54;;;;;;;4.53;2.20;;;;;9.60;98738.00;;;;10424484;28;20232;-76
2024/02/11 17:17:55;;;;;;;4.30;2.43;;;;;9.60;98749.00;;;;10441731;28;20243;-84
2024/02/11 17:22:57;;;;;;;7.87;2.47;;;;;9.60;98749.00;;;;10475889;28;20291;-85
2024/02/11 17:27:59;;;;;;;4.97;2.50;;;;;9.60;98760.00;;;;10454686;28;20316;-83
2024/02/11 17:33:01;;;;;;;5.87;2.63;;;;;9.50;98772.00;;;;10429853;28;20225;-87
2024/02/11 17:38:02;;;;;;;4.37;2.17;;;;;9.50;98781.00;;;;10446738;28;20221;-86
2024/02/11 17:43:04;;;;;;;4.57;2.00;;;;;9.40;98783.00;;;;10491210;28;20217;-87
2024/02/11 17:48:08;;;;;;;3.97;2.00;;;;;9.40;98794.00;;;;10435637;28;20317;-87
2024/02/11 17:53:11;;;;;;;7.07;2.67;;;;;9.30;98792.00;;;;10437078;28;20221;-89
2024/02/11 17:58:12;;;;;;;3.13;2.10;;;;;9.30;98802.00;;;;10442796;28;20299;-82
2024/02/11 18:03:13;;;;;;;3.87;2.47;;;;;9.30;98811.00;;;;10439126;28;20281;-88
2024/02/11 18:08:15;;;;;;;6.53;3.00;;;;;9.30;98814.00;;;;10445462;28;20217;-88
2024/02/11 18:13:19;;;;;;;4.80;2.60;;;;;9.30;98816.00;;;;10476360;27;20204;-80
2024/02/11 18:18:22;;;;;;;6.17;2.90;;;;;9.30;98836.00;;;;10432926;28;20226;-88
2024/02/11 18:23:24;;;;;;;5.17;3.33;;;;;9.30;98836.00;;;;10420854;28;20850;-89
2024/02/11 18:28:26;;;;;;;5.57;3.23;;;;;9.20;98840.00;;;;10428262;28;20221;-86
2024/02/11 18:33:28;;;;;;;7.57;3.70;;;;;9.20;98843.00;;;;10433415;28;20223;-86
2024/02/11 18:38:31;;;;;;;11.17;4.83;;;;;9.20;98860.00;;;;10447629;28;20296;-84
2024/02/11 18:43:34;;;;;;;10.30;5.20;;;;;9.30;98869.00;;;;10461865;28;20216;-88
2024/02/11 18:48:35;;;;;;;11.30;3.90;;;;;9.30;98866.00;;;;10438941;28;20236;-86
2024/02/11 18:53:36;;;;;;;5.17;2.93;;;;;9.30;98873.00;;;;10474665;28;20304;-89
2024/02/11 18:58:39;;;;;;;5.93;1.93;;;;;9.40;98887.00;;;;10443660;28;20288;-89
2024/02/11 19:03:40;;;;;;;5.50;2.40;;;;;9.40;98895.00;;;;10427726;28;20290;-88
2024/02/11 19:08:41;;;;;;;4.93;2.07;;;;;9.40;98906.00;;;;10426788;28;20278;-88
2024/02/11 19:13:42;;;;;;;8.17;2.63;;;;;9.40;98914.00;;;;10431243;28;20233;-85
2024/02/11 19:18:43;;;;;;;5.20;2.87;;;;;9.40;98928.00;;;;10456823;28;20225;-89
2024/02/11 19:23:46;;;;;;;5.80;3.97;;;;;9.20;98945.00;;;;10449187;28;20270;-84
2024/02/11 19:28:47;;;;;;;4.93;3.30;;;;;8.40;98935.00;;;;10437964;28;20917;-87
2024/02/11 19:33:48;;;;;;;7.43;4.60;;;;;8.10;98954.00;;;;10426629;28;20230;-83
2024/02/11 19:38:49;;;;;;;6.63;4.77;;;;;8.00;98955.00;;;;10444259;28;20213;-83
2024/02/11 19:43:51;;;;;;;8.90;6.83;;;;;8.00;98963.00;;;;10460057;28;20274;-83
2024/02/11 19:48:55;;;;;;;10.37;8.20;;;;;7.90;98965.00;;;;10448933;28;20244;-83
2024/02/11 19:53:56;;;;;;;9.73;8.13;;;;;7.90;98984.00;;;;10460586;28;20217;-83
2024/02/11 19:58:59;;;;;;;12.07;8.50;;;;;7.80;98993.00;;;;10441916;28;20213;-84
2024/02/11 20:04:02;;;;;;;14.20;9.83;;;;;7.80;98988.00;;;;10435902;28;20671;-84
2024/02/11 20:09:04;;;;;;;6.27;5.67;;;;;7.90;99007.00;;;;10439404;28;20307;-83
2024/02/11 20:14:05;;;;;;;8.27;5.77;;;;;7.90;99015.00;;;;10484575;28;20220;-83
2024/02/11 20:19:08;;;;;;;8.17;5.03;;;;;7.80;99025.00;;;;10462123;28;20227;-84
2024/02/11 20:24:09;;;;;;;10.20;5.73;;;;;7.80;99035.00;;;;10436496;28;20793;-84
2024/02/11 20:29:13;;;;;;;6.53;5.70;;;;;7.80;99042.00;;;;10443001;28;20221;-85
2024/02/11 20:34:15;;;;;;;8.57;6.17;;;;;7.80;99054.00;;;;10430183;28;20821;-84
2024/02/11 20:39:18;;;;;;;11.47;7.23;;;;;7.80;99049.00;;;;10450809;28;20304;-86
2024/02/11 20:44:19;;;;;;;9.80;8.23;;;;;7.90;99065.00;;;;10429166;28;20904;-84
2024/02/11 20:49:21;;;;;;;11.87;8.50;;;;;7.90;99066.00;;;;10448831;28;20217;-85
2024/02/11 20:54:22;;;;;;;12.10;9.77;;;;;7.90;99077.00;;;;10447789;28;20434;-84
2024/02/11 20:59:24;;;;;;;12.27;9.73;;;;;7.90;99084.00;;;;10462072;28;20213;-84
2024/02/11 21:04:26;;;;;;;12.63;10.77;;;;;8.00;99086.00;;;;10444084;28;20225;-84
2024/02/11 21:09:27;;;;;;;13.23;9.60;;;;;8.00;99087.00;;;;10430532;28;20250;-84
2024/02/11 21:14:28;;;;;;;13.83;9.80;;;;;8.00;99100.00;;;;10473657;28;20267;-84
2024/02/11 21:19:30;;;;;;;14.90;10.57;;;;;8.00;99106.00;;;;10458785;28;20218;-85
2024/02/11 21:24:32;;;;;;;14.83;10.97;;;;;8.00;99123.00;;;;10448453;28;20307;-84
2024/02/11 21:29:34;;;;;;;16.20;11.40;;;;;8.00;99123.00;;;;10458327;28;20221;-85
2024/02/11 21:34:35;;;;;;;20.03;12.93;;;;;8.00;99129.00;;;;10440888;28;20221;-84
2024/02/11 21:39:40;;;;;;;20.70;13.17;;;;;7.90;99140.00;;;;10443503;28;20213;-84
2024/02/11 21:44:42;;;;;;;18.57;13.17;;;;;7.90;99142.00;;;;10450586;28;20253;-85
2024/02/11 21:49:43;;;;;;;22.80;15.27;;;;;7.90;99150.00;;;;10451716;28;20221;-85
2024/02/11 21:54:44;;;;;;;22.90;14.90;;;;;7.90;99151.00;;;;10477414;28;20714;-80
2024/02/11 21:59:46;;;;;;;23.20;15.37;;;;;7.90;99147.00;;;;10462748;28;20651;-80
2024/02/11 22:04:47;;;;;;;26.77;15.70;;;;;7.90;99150.00;;;;10449831;28;20312;-82
2024/02/11 22:09:49;;;;;;;22.43;14.37;;;;;8.00;99151.00;;;;10442433;28;20257;-81
2024/02/11 22:14:50;;;;;;;22.30;15.07;;;;;7.90;99156.00;;;;10439061;28;20257;-79
2024/02/11 22:19:53;;;;;;;29.70;15.00;;;;;7.90;99168.00;;;;10432755;28;20217;-79
2024/02/11 22:24:55;;;;;;;22.83;14.90;;;;;7.80;99162.00;;;;10440442;28;20249;-79
2024/02/11 22:29:59;;;;;;;23.47;15.07;;;;;7.60;99163.00;;;;10446771;28;20229;-80
2024/02/11 22:35:04;;;;;;;30.50;15.33;;;;;7.50;99166.00;;;;10440553;28;20993;-81
2024/02/11 22:40:07;;;;;;;27.83;16.47;;;;;7.40;99166.00;;;;10420955;28;20668;-81
2024/02/11 22:45:09;;;;;;;25.80;16.30;;;;;7.30;99169.00;;;;10451192;28;20210;-79
2024/02/11 22:50:11;;;;;;;29.23;16.73;;;;;7.20;99175.00;;;;10432660;28;20233;-80
2024/02/11 22:55:26;;;;;;;35.00;19.17;;;;;7.10;99179.00;;;;10443440;28;20224;-79
2024/02/11 23:00:39;;;;;;;29.37;18.03;;;;;7.10;99183.00;;;;10428936;28;20232;-81
2024/02/11 23:05:41;;;;;;;33.00;18.80;;;;;7.00;99191.00;;;;10438992;28;20244;-86
2024/02/11 23:10:44;;;;;;;34.30;17.63;;;;;7.00;99185.00;;;;10444262;28;20308;-86
2024/02/11 23:15:47;;;;;;;27.70;17.90;;;;;7.00;99200.00;;;;10428849;28;20312;-86
2024/02/11 23:21:08;;;;;;;33.60;18.37;;;;;7.00;99210.00;;;;10463855;28;20224;-84
2024/02/11 23:26:09;;;;;;;40.23;18.93;;;;;7.10;99225.00;;;;10422039;28;20225;-83
2024/02/11 23:31:14;;;;;;;33.67;17.80;;;;;7.10;99229.00;;;;10459241;28;20232;-86
2024/02/11 23:36:17;;;;;;;32.97;17.37;;;;;7.20;99227.00;;;;10444799;28;20269;-85
2024/02/11 23:41:20;;;;;;;30.43;17.53;;;;;7.30;99239.00;;;;10427274;28;20216;-86
2024/02/11 23:46:22;;;;;;;30.80;17.17;;;;;7.30;99253.00;;;;10424181;28;20699;-86
2024/02/11 23:51:24;;;;;;;36.33;18.43;;;;;7.30;99266.00;;;;10426547;28;20304;-87
2024/02/11 23:56:25;;;;;;;33.80;16.97;;;;;7.40;99272.00;;;;10419509;28;20244;-86
